Wetterdaten: Woche 31.07.06 - 06.08.06 (KW31)
Datum Zeit Temperatur Luftfeuchte Luftdruck Niederschlag Wind Richtung Sonnenschein UV-Strahlung Solar Taupunkt Windchill Windben
31.07.2006 00:00 22.1 C 69 % 1014.5 hPa 0.0 l/m 2.3 km/h (1 Bft) O 0.00 h 0.0 UV-I 0 W/m 16.0 C 22.1 C 3.5 km/h (1 Bft)
31.07.2006 01:00 21.7 C 73 % 1014.8 hPa 0.0 l/m 0.1 km/h (0 Bft) O 0.00 h 0.0 UV-I 0 W/m 16.5 C 21.7 C 0.6 km/h (0 Bft)
31.07.2006 02:00 20.7 C 76 % 1014.7 hPa 0.0 l/m 0.1 km/h (0 Bft) O 0.00 h 0.0 UV-I 0 W/m 16.2 C 20.7 C 0.6 km/h (0 Bft)
31.07.2006 03:00 20.2 C 77 % 1014.5 hPa 0.0 l/m 0.1 km/h (0 Bft) O 0.00 h 0.0 UV-I 0 W/m 16.0 C 20.2 C 0.3 km/h (0 Bft)
31.07.2006 04:00 19.9 C 78 % 1014.3 hPa 0.0 l/m 0.1 km/h (0 Bft) O 0.00 h 0.0 UV-I 0 W/m 15.9 C 19.9 C 0.3 km/h (0 Bft)
31.07.2006 05:00 19.0 C 83 % 1014.3 hPa 0.0 l/m 0.7 km/h (0 Bft) O 0.00 h 0.0 UV-I 0 W/m 16.0 C 19.0 C 1.2 km/h (1 Bft)
31.07.2006 06:00 18.5 C 85 % 1014.4 hPa 0.0 l/m 0.6 km/h (0 Bft) O 0.02 h 0.0 UV-I 22 W/m 15.9 C 18.5 C 1.5 km/h (1 Bft)
31.07.2006 07:00 19.4 C 84 % 1014.4 hPa 0.0 l/m 0.3 km/h (0 Bft) O 0.23 h 0.6 UV-I 104 W/m 16.5 C 19.4 C 0.8 km/h (0 Bft)
31.07.2006 08:00 20.9 C 78 % 1014.4 hPa 0.0 l/m 0.8 km/h (0 Bft) O 0.70 h 1.2 UV-I 256 W/m 17.0 C 20.9 C 1.9 km/h (1 Bft)
31.07.2006 09:00 23.4 C 70 % 1014.3 hPa 0.0 l/m 1.7 km/h (1 Bft) O-SO 0.98 h 2.5 UV-I 440 W/m 17.6 C 23.4 C 3.5 km/h (1 Bft)
31.07.2006 10:00 25.8 C 62 % 1014.0 hPa 0.0 l/m 2.8 km/h (1 Bft) S-SO 1.00 h 4.2 UV-I 601 W/m 17.8 C 25.8 C 5.5 km/h (1 Bft)
31.07.2006 11:00 27.3 C 55 % 1013.3 hPa 0.0 l/m 4.1 km/h (1 Bft) W-NW 0.68 h 4.5 UV-I 525 W/m 17.4 C 27.3 C 6.7 km/h (2 Bft)
31.07.2006 12:00 27.9 C 52 % 1013.0 hPa 0.0 l/m 3.2 km/h (1 Bft) W-NW 0.37 h 5.2 UV-I 496 W/m 17.2 C 27.9 C 5.7 km/h (1 Bft)
31.07.2006 13:00 28.0 C 51 % 1012.4 hPa 0.0 l/m 5.8 km/h (2 Bft) W-NW 0.42 h 4.1 UV-I 383 W/m 16.9 C 28.0 C 8.8 km/h (2 Bft)
31.07.2006 14:00 24.1 C 72 % 1012.7 hPa 0.8 l/m 12.2 km/h (2 Bft) W-NW 0.00 h 0.8 UV-I 25 W/m 18.3 C 24.1 C 18.8 km/h (3 Bft)
31.07.2006 15:00 20.2 C 91 % 1014.1 hPa 0.4 l/m 7.9 km/h (2 Bft) W-NW 0.00 h 1.4 UV-I 87 W/m 18.7 C 20.2 C 12.1 km/h (2 Bft)
31.07.2006 16:00 20.1 C 90 % 1014.5 hPa 0.4 l/m 9.9 km/h (2 Bft) W-NW 0.00 h 0.8 UV-I 57 W/m 18.5 C 20.1 C 16.4 km/h (3 Bft)
31.07.2006 17:00 20.0 C 88 % 1014.5 hPa 0.0 l/m 13.2 km/h (3 Bft) W-NW 0.00 h 1.1 UV-I 134 W/m 18.0 C 20.0 C 20.6 km/h (4 Bft)
31.07.2006 18:00 19.8 C 89 % 1014.6 hPa 0.8 l/m 7.7 km/h (2 Bft) W-NW 0.00 h 0.0 UV-I 29 W/m 17.9 C 19.8 C 12.2 km/h (2 Bft)
31.07.2006 19:00 19.4 C 91 % 1014.6 hPa 0.8 l/m 2.1 km/h (1 Bft) S-SO 0.13 h 0.5 UV-I 84 W/m 17.9 C 19.4 C 4.5 km/h (1 Bft)
31.07.2006 20:00 19.4 C 91 % 1014.6 hPa 0.0 l/m 0.5 km/h (0 Bft) S-SO 0.00 h 0.0 UV-I 21 W/m 17.9 C 19.4 C 1.4 km/h (1 Bft)
31.07.2006 21:00 19.0 C 92 % 1014.7 hPa 0.0 l/m 0.9 km/h (0 Bft) S-SO 0.00 h 0.0 UV-I 0 W/m 17.7 C 19.0 C 2.4 km/h (1 Bft)
31.07.2006 22:00 18.7 C 93 % 1014.6 hPa 0.0 l/m 0.6 km/h (0 Bft) SO 0.00 h 0.0 UV-I 0 W/m 17.5 C 18.7 C 1.5 km/h (1 Bft)
31.07.2006 23:00 18.3 C 94 % 1014.6 hPa 0.0 l/m 0.1 km/h (0 Bft) O-SO 0.00 h 0.0 UV-I 0 W/m 17.3 C 18.3 C 0.7 km/h (0 Bft)
01.08.2006 00:00 18.2 C 95 % 1014.2 hPa 0.0 l/m 0.8 km/h (0 Bft) O-SO 0.00 h 0.0 UV-I 0 W/m 17.4 C 18.2 C 2.0 km/h (1 Bft)
01.08.2006 01:00 18.1 C 95 % 1013.9 hPa 0.0 l/m 0.2 km/h (0 Bft) O-SO 0.00 h 0.0 UV-I 0 W/m 17.2 C 18.1 C 0.9 km/h (0 Bft)
01.08.2006 02:00 17.9 C 95 % 1014.0 hPa 0.0 l/m 0.6 km/h (0 Bft) O-SO 0.00 h 0.0 UV-I 0 W/m 17.1 C 17.9 C 1.0 km/h (0 Bft)
01.08.2006 03:00 18.1 C 94 % 1013.7 hPa 0.0 l/m 0.1 km/h (0 Bft) O-SO 0.00 h 0.0 UV-I 0 W/m 17.1 C 18.1 C 0.7 km/h (0 Bft)
01.08.2006 04:00 17.9 C 92 % 1013.3 hPa 0.0 l/m 0.4 km/h (0 Bft) W-SW 0.00 h 0.0 UV-I 0 W/m 16.6 C 17.9 C 1.4 km/h (1 Bft)
01.08.2006 05:00 17.8 C 91 % 1012.9 hPa 0.0 l/m 0.3 km/h (0 Bft) S-SO 0.00 h 0.0 UV-I 0 W/m 16.3 C 17.8 C 1.1 km/h (1 Bft)
01.08.2006 06:00 17.7 C 93 % 1013.0 hPa 0.0 l/m 0.0 km/h (0 Bft) N 0.00 h 0.0 UV-I 13 W/m 16.5 C 17.7 C 0.1 km/h (0 Bft)
01.08.2006 07:00 17.9 C 93 % 1012.9 hPa 0.2 l/m 0.1 km/h (0 Bft) S-SO 0.00 h 0.0 UV-I 36 W/m 16.8 C 17.9 C 0.5 km/h (0 Bft)
01.08.2006 08:00 18.0 C 94 % 1012.9 hPa 0.6 l/m 0.6 km/h (0 Bft) S-SO 0.00 h 0.8 UV-I 72 W/m 17.0 C 18.0 C 1.9 km/h (1 Bft)
01.08.2006 09:00 18.1 C 94 % 1013.1 hPa 0.4 l/m 1.0 km/h (0 Bft) W-SW 0.00 h 1.0 UV-I 114 W/m 17.2 C 18.1 C 2.6 km/h (1 Bft)
01.08.2006 10:00 18.3 C 91 % 1012.9 hPa 0.0 l/m 1.7 km/h (1 Bft) W-SW 0.05 h 2.3 UV-I 241 W/m 16.9 C 18.3 C 3.7 km/h (1 Bft)
01.08.2006 11:00 19.6 C 84 % 1012.5 hPa 0.0 l/m 3.5 km/h (1 Bft) W-SW 0.45 h 4.3 UV-I 398 W/m 16.9 C 19.6 C 7.2 km/h (2 Bft)
01.08.2006 12:00 19.6 C 82 % 1012.0 hPa 0.4 l/m 3.1 km/h (1 Bft) W 0.02 h 2.1 UV-I 156 W/m 16.4 C 19.6 C 6.7 km/h (2 Bft)
01.08.2006 13:00 18.3 C 87 % 1012.2 hPa 0.0 l/m 12.0 km/h (2 Bft) W-NW 0.00 h 2.6 UV-I 203 W/m 16.2 C 18.3 C 17.8 km/h (3 Bft)
01.08.2006 14:00 18.3 C 88 % 1012.4 hPa 0.0 l/m 8.6 km/h (2 Bft) W 0.15 h 3.7 UV-I 307 W/m 16.2 C 18.3 C 13.0 km/h (3 Bft)
01.08.2006 15:00 21.0 C 75 % 1011.6 hPa 0.2 l/m 11.3 km/h (2 Bft) W-NW 0.77 h 6.0 UV-I 602 W/m 16.3 C 21.0 C 16.7 km/h (3 Bft)
01.08.2006 16:00 20.9 C 71 % 1011.2 hPa 0.0 l/m 10.8 km/h (2 Bft) W-NW 0.12 h 3.0 UV-I 256 W/m 15.5 C 20.9 C 16.7 km/h (3 Bft)
01.08.2006 17:00 21.9 C 66 % 1010.9 hPa 0.0 l/m 10.0 km/h (2 Bft) W-NW 0.58 h 2.3 UV-I 290 W/m 15.2 C 21.9 C 15.5 km/h (3 Bft)
01.08.2006 18:00 22.2 C 55 % 1010.6 hPa 0.0 l/m 11.1 km/h (2 Bft) W-NW 0.23 h 1.1 UV-I 195 W/m 12.7 C 22.2 C 17.2 km/h (3 Bft)
01.08.2006 19:00 21.4 C 57 % 1010.8 hPa 0.0 l/m 10.6 km/h (2 Bft) W-NW 0.17 h 0.5 UV-I 66 W/m 12.5 C 21.4 C 16.7 km/h (3 Bft)
01.08.2006 20:00 20.5 C 61 % 1011.1 hPa 0.0 l/m 10.0 km/h (2 Bft) W-NW 0.03 h 0.0 UV-I 28 W/m 12.7 C 20.5 C 15.7 km/h (3 Bft)
01.08.2006 21:00 19.3 C 70 % 1012.2 hPa 0.0 l/m 11.5 km/h (2 Bft) W-NW 0.00 h 0.0 UV-I 0 W/m 13.7 C 19.3 C 16.6 km/h (3 Bft)
01.08.2006 22:00 18.3 C 74 % 1012.8 hPa 0.0 l/m 5.2 km/h (1 Bft) W-NW 0.00 h 0.0 UV-I 0 W/m 13.6 C 18.3 C 8.6 km/h (2 Bft)
01.08.2006 23:00 18.3 C 70 % 1013.1 hPa 0.0 l/m 8.6 km/h (2 Bft) W-NW 0.00 h 0.0 UV-I 0 W/m 12.8 C 18.3 C 14.5 km/h (3 Bft)
02.08.2006 00:00 18.1 C 65 % 1013.6 hPa 0.0 l/m 9.5 km/h (2 Bft) W 0.00 h 0.0 UV-I 0 W/m 11.3 C 18.1 C 14.6 km/h (3 Bft)
02.08.2006 01:00 17.4 C 66 % 1014.0 hPa 0.0 l/m 9.4 km/h (2 Bft) W 0.00 h 0.0 UV-I 0 W/m 11.0 C 17.4 C 15.1 km/h (3 Bft)
02.08.2006 02:00 16.4 C 71 % 1014.1 hPa 0.0 l/m 1.4 km/h (1 Bft) W 0.00 h 0.0 UV-I 0 W/m 11.0 C 16.4 C 3.3 km/h (1 Bft)
02.08.2006 03:00 15.8 C 74 % 1014.0 hPa 0.0 l/m 1.9 km/h (1 Bft) W-NW 0.00 h 0.0 UV-I 0 W/m 11.1 C 15.8 C 3.7 km/h (1 Bft)
02.08.2006 04:00 16.2 C 71 % 1013.7 hPa 0.0 l/m 2.0 km/h (1 Bft) S-SO 0.00 h 0.0 UV-I 0 W/m 11.1 C 16.2 C 4.8 km/h (1 Bft)
02.08.2006 05:00 15.9 C 73 % 1013.5 hPa 0.0 l/m 2.9 km/h (1 Bft) S-SO 0.00 h 0.0 UV-I 0 W/m 11.0 C 15.9 C 5.9 km/h (2 Bft)
02.08.2006 06:00 15.5 C 78 % 1013.4 hPa 1.2 l/m 2.3 km/h (1 Bft) S-SO 0.00 h 0.0 UV-I 5 W/m 11.7 C 15.5 C 4.4 km/h (1 Bft)
02.08.2006 07:00 14.5 C 91 % 1013.5 hPa 0.0 l/m 4.6 km/h (1 Bft) O-SO 0.00 h 0.5 UV-I 49 W/m 13.1 C 14.5 C 6.1 km/h (2 Bft)
02.08.2006 08:00 15.4 C 90 % 1013.6 hPa 0.0 l/m 1.5 km/h (1 Bft) S-SW 0.15 h 0.9 UV-I 162 W/m 13.8 C 15.4 C 3.8 km/h (1 Bft)
02.08.2006 09:00 16.7 C 86 % 1013.2 hPa 0.0 l/m 4.9 km/h (1 Bft) W 0.43 h 2.1 UV-I 355 W/m 14.2 C 16.7 C 8.2 km/h (2 Bft)
02.08.2006 10:00 18.5 C 70 % 1012.9 hPa 0.0 l/m 11.4 km/h (2 Bft) W-NW 1.00 h 4.9 UV-I 690 W/m 13.0 C 18.5 C 18.5 km/h (3 Bft)
02.08.2006 11:00 19.5 C 63 % 1012.5 hPa 0.2 l/m 16.4 km/h (3 Bft) W-NW 0.60 h 5.1 UV-I 624 W/m 12.3 C 19.5 C 24.2 km/h (4 Bft)
02.08.2006 12:00 17.9 C 70 % 1012.2 hPa 0.0 l/m 11.4 km/h (2 Bft) W-NW 0.07 h 3.4 UV-I 264 W/m 12.4 C 17.9 C 17.2 km/h (3 Bft)
02.08.2006 13:00 19.4 C 63 % 1011.8 hPa 0.0 l/m 14.5 km/h (3 Bft) W-NW 0.55 h 6.7 UV-I 611 W/m 12.0 C 19.4 C 21.9 km/h (4 Bft)
02.08.2006 14:00 21.3 C 55 % 1011.0 hPa 0.0 l/m 15.0 km/h (3 Bft) W-NW 0.72 h 6.9 UV-I 696 W/m 11.8 C 21.3 C 22.6 km/h (4 Bft)
02.08.2006 15:00 21.4 C 55 % 1010.6 hPa 0.0 l/m 11.2 km/h (2 Bft) W-NW 0.25 h 4.9 UV-I 436 W/m 12.0 C 21.4 C 17.4 km/h (3 Bft)
02.08.2006 16:00 22.8 C 47 % 1009.9 hPa 0.0 l/m 14.1 km/h (3 Bft) W-NW 0.60 h 3.9 UV-I 561 W/m 10.9 C 22.8 C 21.4 km/h (4 Bft)
02.08.2006 17:00 23.3 C 43 % 1009.1 hPa 0.0 l/m 15.7 km/h (3 Bft) W-NW 1.00 h 2.7 UV-I 507 W/m 10.0 C 23.3 C 24.2 km/h (4 Bft)
02.08.2006 18:00 22.0 C 49 % 1009.2 hPa 0.0 l/m 17.9 km/h (3 Bft) W-NW 0.98 h 1.3 UV-I 314 W/m 10.8 C 22.0 C 25.5 km/h (4 Bft)
02.08.2006 19:00 21.1 C 53 % 1008.9 hPa 0.0 l/m 10.4 km/h (2 Bft) W-NW 0.63 h 0.6 UV-I 135 W/m 11.0 C 21.1 C 16.0 km/h (3 Bft)
02.08.2006 20:00 20.4 C 55 % 1008.7 hPa 0.0 l/m 13.7 km/h (3 Bft) W-NW 0.37 h 0.0 UV-I 36 W/m 11.0 C 20.4 C 20.0 km/h (4 Bft)
02.08.2006 21:00 19.4 C 56 % 1008.9 hPa 0.0 l/m 9.2 km/h (2 Bft) W-NW 0.00 h 0.0 UV-I 0 W/m 10.5 C 19.4 C 13.5 km/h (3 Bft)
02.08.2006 22:00 18.6 C 59 % 1008.9 hPa 0.0 l/m 9.6 km/h (2 Bft) W-NW 0.00 h 0.0 UV-I 0 W/m 10.5 C 18.6 C 13.9 km/h (3 Bft)
02.08.2006 23:00 18.0 C 63 % 1008.9 hPa 0.0 l/m 5.4 km/h (1 Bft) W-NW 0.00 h 0.0 UV-I 0 W/m 11.0 C 18.0 C 7.8 km/h (2 Bft)
03.08.2006 00:00 17.5 C 67 % 1008.5 hPa 0.0 l/m 2.2 km/h (1 Bft) NW 0.00 h 0.0 UV-I 0 W/m 11.3 C 17.5 C 4.1 km/h (1 Bft)
03.08.2006 01:00 17.2 C 69 % 1007.8 hPa 0.0 l/m 0.9 km/h (0 Bft) W 0.00 h 0.0 UV-I 0 W/m 11.5 C 17.2 C 2.4 km/h (1 Bft)
03.08.2006 02:00 17.0 C 71 % 1006.8 hPa 0.0 l/m 3.3 km/h (1 Bft) W-NW 0.00 h 0.0 UV-I 0 W/m 11.8 C 17.0 C 5.0 km/h (1 Bft)
03.08.2006 03:00 15.4 C 85 % 1005.9 hPa 0.2 l/m 2.4 km/h (1 Bft) W-NW 0.00 h 0.0 UV-I 0 W/m 12.9 C 15.4 C 4.1 km/h (1 Bft)
03.08.2006 04:00 14.9 C 88 % 1005.0 hPa 0.0 l/m 1.8 km/h (1 Bft) SO 0.00 h 0.0 UV-I 0 W/m 12.9 C 14.9 C 2.8 km/h (1 Bft)
03.08.2006 05:00 15.0 C 89 % 1004.2 hPa 0.0 l/m 0.6 km/h (0 Bft) SO 0.00 h 0.0 UV-I 0 W/m 13.2 C 15.0 C 1.5 km/h (1 Bft)
03.08.2006 06:00 14.8 C 89 % 1003.9 hPa 0.6 l/m 3.9 km/h (1 Bft) S-SO 0.00 h 0.0 UV-I 6 W/m 13.0 C 14.8 C 6.9 km/h (2 Bft)
03.08.2006 07:00 14.7 C 92 % 1004.4 hPa 0.2 l/m 0.1 km/h (0 Bft) S-SO 0.00 h 0.0 UV-I 10 W/m 13.4 C 14.7 C 0.8 km/h (0 Bft)
03.08.2006 08:00 14.7 C 93 % 1004.6 hPa 0.8 l/m 0.8 km/h (0 Bft) O-SO 0.00 h 0.0 UV-I 17 W/m 13.6 C 14.7 C 2.3 km/h (1 Bft)
03.08.2006 09:00 14.4 C 95 % 1005.0 hPa 3.2 l/m 2.2 km/h (1 Bft) S-SW 0.00 h 0.0 UV-I 36 W/m 13.6 C 14.4 C 5.7 km/h (1 Bft)
03.08.2006 10:00 14.3 C 97 % 1005.6 hPa 1.8 l/m 1.4 km/h (1 Bft) S-SO 0.00 h 0.9 UV-I 82 W/m 13.8 C 14.3 C 3.4 km/h (1 Bft)
03.08.2006 11:00 14.8 C 94 % 1005.7 hPa 0.8 l/m 0.6 km/h (0 Bft) S-SO 0.08 h 2.0 UV-I 217 W/m 13.9 C 14.8 C 2.3 km/h (1 Bft)
03.08.2006 12:00 16.4 C 90 % 1005.3 hPa 0.0 l/m 2.1 km/h (1 Bft) S-SO 0.25 h 4.0 UV-I 395 W/m 14.7 C 16.4 C 4.8 km/h (1 Bft)
03.08.2006 13:00 18.0 C 81 % 1004.9 hPa 0.0 l/m 3.3 km/h (1 Bft) S-SO 0.40 h 3.6 UV-I 437 W/m 14.7 C 18.0 C 6.3 km/h (2 Bft)
03.08.2006 14:00 14.5 C 87 % 1006.1 hPa 3.6 l/m 8.4 km/h (2 Bft) N 0.00 h 1.0 UV-I 73 W/m 12.3 C 14.5 C 13.5 km/h (3 Bft)
03.08.2006 15:00 13.4 C 95 % 1007.9 hPa 2.2 l/m 1.4 km/h (1 Bft) SO 0.10 h 1.9 UV-I 189 W/m 12.6 C 13.4 C 3.0 km/h (1 Bft)
03.08.2006 16:00 14.5 C 92 % 1008.2 hPa 0.4 l/m 1.3 km/h (1 Bft) O-SO 0.00 h 1.6 UV-I 192 W/m 13.2 C 14.5 C 3.0 km/h (1 Bft)
03.08.2006 17:00 14.4 C 95 % 1008.6 hPa 0.0 l/m 1.6 km/h (1 Bft) W-SW 0.00 h 1.0 UV-I 155 W/m 13.6 C 14.4 C 4.1 km/h (1 Bft)
03.08.2006 18:00 14.4 C 92 % 1009.3 hPa 0.0 l/m 2.3 km/h (1 Bft) S 0.00 h 0.7 UV-I 119 W/m 13.1 C 14.4 C 5.2 km/h (1 Bft)
03.08.2006 19:00 14.6 C 90 % 1009.4 hPa 0.0 l/m 3.3 km/h (1 Bft) S 0.40 h 0.5 UV-I 128 W/m 13.0 C 14.6 C 6.7 km/h (2 Bft)
03.08.2006 20:00 13.9 C 90 % 1009.9 hPa 0.4 l/m 3.4 km/h (1 Bft) S-SW 0.00 h 0.0 UV-I 28 W/m 12.2 C 13.9 C 7.1 km/h (2 Bft)
03.08.2006 21:00 13.0 C 94 % 1010.5 hPa 0.8 l/m 2.4 km/h (1 Bft) S-SO 0.00 h 0.0 UV-I 0 W/m 12.0 C 13.0 C 5.3 km/h (1 Bft)
03.08.2006 22:00 12.8 C 93 % 1011.0 hPa 0.0 l/m 1.9 km/h (1 Bft) S-SO 0.00 h 0.0 UV-I 0 W/m 11.8 C 12.8 C 4.8 km/h (1 Bft)
03.08.2006 23:00 12.8 C 94 % 1010.9 hPa 0.0 l/m 1.9 km/h (1 Bft) S-SO 0.00 h 0.0 UV-I 0 W/m 11.8 C 12.8 C 4.2 km/h (1 Bft)
04.08.2006 00:00 12.8 C 94 % 1010.6 hPa 0.0 l/m 1.8 km/h (1 Bft) S-SO 0.00 h 0.0 UV-I 0 W/m 11.9 C 12.8 C 3.8 km/h (1 Bft)
04.08.2006 01:00 12.8 C 95 % 1010.4 hPa 0.0 l/m 0.8 km/h (0 Bft) S 0.00 h 0.0 UV-I 0 W/m 12.0 C 12.8 C 2.5 km/h (1 Bft)
04.08.2006 02:00 12.9 C 96 % 1010.5 hPa 0.0 l/m 0.6 km/h (0 Bft) S-SO 0.00 h 0.0 UV-I 0 W/m 12.2 C 12.9 C 2.1 km/h (1 Bft)
04.08.2006 03:00 12.9 C 96 % 1010.3 hPa 0.0 l/m 2.2 km/h (1 Bft) S-SO 0.00 h 0.0 UV-I 0 W/m 12.2 C 12.9 C 4.5 km/h (1 Bft)
04.08.2006 04:00 12.8 C 95 % 1010.1 hPa 0.0 l/m 1.1 km/h (0 Bft) SO 0.00 h 0.0 UV-I 0 W/m 12.0 C 12.8 C 2.9 km/h (1 Bft)
04.08.2006 05:00 12.8 C 95 % 1010.1 hPa 0.0 l/m 2.1 km/h (1 Bft) S-SO 0.00 h 0.0 UV-I 0 W/m 11.9 C 12.8 C 4.5 km/h (1 Bft)
04.08.2006 06:00 12.9 C 94 % 1010.5 hPa 0.0 l/m 1.6 km/h (1 Bft) S-SO 0.00 h 0.0 UV-I 18 W/m 11.9 C 12.9 C 3.5 km/h (1 Bft)
04.08.2006 07:00 13.3 C 94 % 1010.7 hPa 0.0 l/m 0.8 km/h (0 Bft) S-SO 0.27 h 0.6 UV-I 89 W/m 12.3 C 13.3 C 2.6 km/h (1 Bft)
04.08.2006 08:00 14.2 C 92 % 1011.1 hPa 0.0 l/m 1.6 km/h (1 Bft) S-SO 0.02 h 0.7 UV-I 120 W/m 12.9 C 14.2 C 3.7 km/h (1 Bft)
04.08.2006 09:00 15.0 C 90 % 1011.6 hPa 0.0 l/m 1.5 km/h (1 Bft) W-SW 0.00 h 1.2 UV-I 173 W/m 13.5 C 15.0 C 3.8 km/h (1 Bft)
04.08.2006 10:00 15.3 C 88 % 1011.8 hPa 0.0 l/m 2.0 km/h (1 Bft) S-SO 0.03 h 1.8 UV-I 191 W/m 13.3 C 15.3 C 4.4 km/h (1 Bft)
04.08.2006 11:00 15.4 C 89 % 1012.1 hPa 1.4 l/m 1.2 km/h (1 Bft) SO 0.00 h 1.2 UV-I 100 W/m 13.6 C 15.4 C 3.1 km/h (1 Bft)
04.08.2006 12:00 16.0 C 88 % 1012.2 hPa 0.0 l/m 3.7 km/h (1 Bft) SO 0.05 h 3.1 UV-I 278 W/m 14.0 C 16.0 C 6.2 km/h (2 Bft)
04.08.2006 13:00 17.6 C 80 % 1011.8 hPa 0.0 l/m 2.2 km/h (1 Bft) S-SO 0.03 h 3.3 UV-I 330 W/m 14.1 C 17.6 C 4.4 km/h (1 Bft)
04.08.2006 14:00 18.0 C 76 % 1011.6 hPa 0.0 l/m 2.9 km/h (1 Bft) O-SO 0.00 h 1.8 UV-I 182 W/m 13.6 C 18.0 C 5.3 km/h (1 Bft)
04.08.2006 15:00 18.7 C 72 % 1011.4 hPa 0.2 l/m 5.1 km/h (1 Bft) SO 0.15 h 2.7 UV-I 296 W/m 13.4 C 18.7 C 8.2 km/h (2 Bft)
04.08.2006 16:00 19.0 C 73 % 1011.6 hPa 0.0 l/m 5.0 km/h (1 Bft) N 0.13 h 2.0 UV-I 253 W/m 14.0 C 19.0 C 7.9 km/h (2 Bft)
04.08.2006 17:00 19.7 C 67 % 1011.6 hPa 0.0 l/m 4.5 km/h (1 Bft) W-NW 0.03 h 1.7 UV-I 227 W/m 13.4 C 19.7 C 7.0 km/h (2 Bft)
04.08.2006 18:00 19.0 C 68 % 1011.8 hPa 0.0 l/m 10.5 km/h (2 Bft) W-NW 0.00 h 0.9 UV-I 98 W/m 12.9 C 19.0 C 15.9 km/h (3 Bft)
04.08.2006 19:00 16.4 C 82 % 1012.6 hPa 0.0 l/m 8.6 km/h (2 Bft) W-NW 0.00 h 0.0 UV-I 29 W/m 13.2 C 16.4 C 13.4 km/h (3 Bft)
04.08.2006 20:00 15.1 C 94 % 1013.1 hPa 0.4 l/m 1.0 km/h (0 Bft) W-SW 0.00 h 0.0 UV-I 19 W/m 14.1 C 15.1 C 2.6 km/h (1 Bft)
04.08.2006 21:00 15.1 C 95 % 1013.3 hPa 0.2 l/m 0.8 km/h (0 Bft) S-SO 0.00 h 0.0 UV-I 0 W/m 14.3 C 15.1 C 2.3 km/h (1 Bft)
04.08.2006 22:00 14.9 C 94 % 1013.6 hPa 0.0 l/m 3.0 km/h (1 Bft) W-NW 0.00 h 0.0 UV-I 0 W/m 14.0 C 14.9 C 5.3 km/h (1 Bft)
04.08.2006 23:00 14.9 C 94 % 1013.5 hPa 0.0 l/m 0.8 km/h (0 Bft) W-NW 0.00 h 0.0 UV-I 0 W/m 13.9 C 14.9 C 2.0 km/h (1 Bft)
05.08.2006 00:00 14.6 C 94 % 1013.4 hPa 0.0 l/m 0.9 km/h (0 Bft) SO 0.00 h 0.0 UV-I 0 W/m 13.7 C 14.6 C 2.0 km/h (1 Bft)
05.08.2006 01:00 14.5 C 95 % 1013.4 hPa 0.0 l/m 0.1 km/h (0 Bft) O-SO 0.00 h 0.0 UV-I 0 W/m 13.7 C 14.5 C 0.5 km/h (0 Bft)
05.08.2006 02:00 14.4 C 96 % 1013.5 hPa 0.0 l/m 0.6 km/h (0 Bft) O-SO 0.00 h 0.0 UV-I 0 W/m 13.7 C 14.4 C 1.5 km/h (1 Bft)
05.08.2006 03:00 14.3 C 96 % 1013.4 hPa 0.0 l/m 1.3 km/h (1 Bft) O-SO 0.00 h 0.0 UV-I 0 W/m 13.7 C 14.3 C 2.9 km/h (1 Bft)
05.08.2006 04:00 14.3 C 96 % 1013.4 hPa 0.0 l/m 1.2 km/h (1 Bft) O-SO 0.00 h 0.0 UV-I 0 W/m 13.8 C 14.3 C 2.2 km/h (1 Bft)
05.08.2006 05:00 14.3 C 97 % 1013.6 hPa 0.0 l/m 1.1 km/h (0 Bft) O-SO 0.00 h 0.0 UV-I 0 W/m 13.7 C 14.3 C 1.7 km/h (1 Bft)
05.08.2006 06:00 14.0 C 97 % 1013.6 hPa 0.0 l/m 0.2 km/h (0 Bft) O-SO 0.00 h 0.0 UV-I 9 W/m 13.5 C 14.0 C 0.7 km/h (0 Bft)
05.08.2006 07:00 14.1 C 96 % 1014.2 hPa 1.4 l/m 1.7 km/h (1 Bft) O-SO 0.00 h 0.0 UV-I 11 W/m 13.5 C 14.1 C 3.2 km/h (1 Bft)
05.08.2006 08:00 14.2 C 98 % 1014.6 hPa 1.0 l/m 0.0 km/h (0 Bft) N-NW 0.00 h 0.5 UV-I 54 W/m 13.8 C 14.2 C 0.2 km/h (0 Bft)
05.08.2006 09:00 14.4 C 98 % 1015.1 hPa 1.8 l/m 0.5 km/h (0 Bft) N 0.00 h 0.7 UV-I 66 W/m 14.1 C 14.4 C 1.3 km/h (1 Bft)
05.08.2006 10:00 14.2 C 96 % 1015.5 hPa 1.8 l/m 0.7 km/h (0 Bft) W-NW 0.00 h 0.8 UV-I 64 W/m 13.7 C 14.2 C 1.4 km/h (1 Bft)
05.08.2006 11:00 14.5 C 98 % 1015.7 hPa 1.4 l/m 0.4 km/h (0 Bft) S-SW 0.00 h 1.2 UV-I 115 W/m 14.1 C 14.5 C 1.7 km/h (1 Bft)
05.08.2006 12:00 14.7 C 98 % 1016.1 hPa 1.8 l/m 0.8 km/h (0 Bft) W 0.00 h 1.1 UV-I 94 W/m 14.3 C 14.7 C 1.9 km/h (1 Bft)
05.08.2006 13:00 14.3 C 97 % 1016.4 hPa 0.8 l/m 1.2 km/h (1 Bft) S-SO 0.00 h 1.1 UV-I 94 W/m 13.9 C 14.3 C 2.9 km/h (1 Bft)
05.08.2006 14:00 14.3 C 98 % 1016.6 hPa 1.6 l/m 0.9 km/h (0 Bft) W 0.00 h 1.3 UV-I 102 W/m 14.0 C 14.3 C 2.9 km/h (1 Bft)
05.08.2006 15:00 14.6 C 98 % 1016.8 hPa 0.6 l/m 1.1 km/h (1 Bft) S 0.00 h 1.3 UV-I 119 W/m 14.2 C 14.6 C 3.0 km/h (1 Bft)
05.08.2006 16:00 15.3 C 97 % 1016.8 hPa 0.2 l/m 0.8 km/h (0 Bft) S 0.07 h 1.5 UV-I 201 W/m 14.8 C 15.3 C 2.3 km/h (1 Bft)
05.08.2006 17:00 16.3 C 94 % 1016.8 hPa 0.0 l/m 1.9 km/h (1 Bft) W-NW 0.33 h 1.7 UV-I 279 W/m 15.4 C 16.3 C 3.7 km/h (1 Bft)
05.08.2006 18:00 17.1 C 92 % 1016.8 hPa 0.0 l/m 1.6 km/h (1 Bft) W-NW 0.55 h 1.0 UV-I 262 W/m 15.7 C 17.1 C 3.5 km/h (1 Bft)
05.08.2006 19:00 16.5 C 91 % 1017.1 hPa 0.0 l/m 1.3 km/h (1 Bft) S-SO 0.22 h 0.6 UV-I 99 W/m 15.1 C 16.5 C 3.7 km/h (1 Bft)
05.08.2006 20:00 15.7 C 93 % 1017.7 hPa 0.0 l/m 0.7 km/h (0 Bft) S 0.00 h 0.0 UV-I 19 W/m 14.5 C 15.7 C 2.5 km/h (1 Bft)
05.08.2006 21:00 15.3 C 95 % 1018.3 hPa 0.0 l/m 0.5 km/h (0 Bft) S-SO 0.00 h 0.0 UV-I 0 W/m 14.5 C 15.3 C 1.7 km/h (1 Bft)
05.08.2006 22:00 15.1 C 96 % 1018.6 hPa 0.0 l/m 1.8 km/h (1 Bft) S-SO 0.00 h 0.0 UV-I 0 W/m 14.5 C 15.1 C 3.9 km/h (1 Bft)
05.08.2006 23:00 14.9 C 96 % 1018.8 hPa 0.0 l/m 0.9 km/h (0 Bft) S-SO 0.00 h 0.0 UV-I 0 W/m 14.3 C 14.9 C 2.6 km/h (1 Bft)
06.08.2006 00:00 14.8 C 96 % 1018.6 hPa 0.0 l/m 2.4 km/h (1 Bft) S-SO 0.00 h 0.0 UV-I 0 W/m 14.1 C 14.8 C 5.1 km/h (1 Bft)
06.08.2006 01:00 14.5 C 96 % 1018.5 hPa 0.0 l/m 1.4 km/h (1 Bft) S-SO 0.00 h 0.0 UV-I 0 W/m 13.8 C 14.5 C 2.8 km/h (1 Bft)
06.08.2006 02:00 14.6 C 97 % 1018.3 hPa 0.0 l/m 0.8 km/h (0 Bft) S 0.00 h 0.0 UV-I 0 W/m 14.0 C 14.6 C 2.2 km/h (1 Bft)
06.08.2006 03:00 14.6 C 97 % 1017.9 hPa 0.0 l/m 0.2 km/h (0 Bft) S 0.00 h 0.0 UV-I 0 W/m 14.1 C 14.6 C 1.4 km/h (1 Bft)
06.08.2006 04:00 14.8 C 95 % 1017.5 hPa 0.0 l/m 1.3 km/h (1 Bft) S-SO 0.00 h 0.0 UV-I 0 W/m 14.1 C 14.8 C 3.3 km/h (1 Bft)
06.08.2006 05:00 14.8 C 96 % 1017.5 hPa 1.2 l/m 0.4 km/h (0 Bft) S-SO 0.00 h 0.0 UV-I 0 W/m 14.1 C 14.8 C 1.5 km/h (1 Bft)
06.08.2006 06:00 14.6 C 97 % 1017.3 hPa 0.8 l/m 1.6 km/h (1 Bft) S-SO 0.00 h 0.0 UV-I 5 W/m 14.1 C 14.6 C 3.7 km/h (1 Bft)
06.08.2006 07:00 14.5 C 98 % 1017.7 hPa 0.6 l/m 1.0 km/h (0 Bft) S-SO 0.00 h 0.0 UV-I 9 W/m 14.2 C 14.5 C 2.8 km/h (1 Bft)
06.08.2006 08:00 14.4 C 98 % 1017.8 hPa 0.0 l/m 1.4 km/h (1 Bft) S-SO 0.00 h 0.0 UV-I 31 W/m 14.1 C 14.4 C 4.1 km/h (1 Bft)
06.08.2006 09:00 14.7 C 97 % 1017.8 hPa 0.0 l/m 2.1 km/h (1 Bft) S 0.00 h 0.7 UV-I 75 W/m 14.1 C 14.7 C 4.9 km/h (1 Bft)
06.08.2006 10:00 14.9 C 95 % 1017.7 hPa 0.0 l/m 2.6 km/h (1 Bft) S 0.00 h 0.8 UV-I 77 W/m 14.2 C 14.9 C 5.5 km/h (1 Bft)
06.08.2006 11:00 15.3 C 95 % 1017.8 hPa 0.0 l/m 2.9 km/h (1 Bft) S 0.00 h 1.2 UV-I 121 W/m 14.4 C 15.3 C 6.2 km/h (2 Bft)
06.08.2006 12:00 15.6 C 95 % 1017.7 hPa 0.6 l/m 2.5 km/h (1 Bft) S-SO 0.00 h 1.1 UV-I 102 W/m 14.7 C 15.6 C 5.3 km/h (1 Bft)
06.08.2006 13:00 15.8 C 96 % 1017.6 hPa 0.2 l/m 1.9 km/h (1 Bft) SO 0.00 h 1.5 UV-I 157 W/m 15.2 C 15.8 C 4.3 km/h (1 Bft)
06.08.2006 14:00 15.7 C 94 % 1017.9 hPa 6.2 l/m 2.9 km/h (1 Bft) O-SO 0.00 h 1.4 UV-I 98 W/m 14.7 C 15.7 C 5.4 km/h (1 Bft)
06.08.2006 15:00 15.4 C 94 % 1018.3 hPa 0.0 l/m 2.0 km/h (1 Bft) S-SO 0.33 h 3.0 UV-I 364 W/m 14.5 C 15.4 C 4.4 km/h (1 Bft)
06.08.2006 16:00 17.9 C 89 % 1017.9 hPa 0.0 l/m 3.7 km/h (1 Bft) W 0.82 h 3.6 UV-I 549 W/m 15.9 C 17.9 C 6.8 km/h (2 Bft)
06.08.2006 17:00 16.9 C 89 % 1017.8 hPa 0.0 l/m 2.0 km/h (1 Bft) S-SW 0.00 h 1.1 UV-I 116 W/m 15.1 C 16.9 C 5.0 km/h (1 Bft)
06.08.2006 18:00 16.9 C 89 % 1017.7 hPa 0.0 l/m 2.7 km/h (1 Bft) W 0.00 h 0.7 UV-I 83 W/m 15.0 C 16.9 C 5.1 km/h (1 Bft)
06.08.2006 19:00 16.9 C 85 % 1017.8 hPa 0.0 l/m 1.2 km/h (1 Bft) S-SO 0.00 h 0.6 UV-I 80 W/m 14.3 C 16.9 C 3.3 km/h (1 Bft)
06.08.2006 20:00 16.5 C 89 % 1018.2 hPa 0.0 l/m 1.2 km/h (1 Bft) S 0.02 h 0.0 UV-I 19 W/m 14.7 C 16.5 C 3.3 km/h (1 Bft)
06.08.2006 21:00 16.0 C 90 % 1018.8 hPa 0.0 l/m 2.4 km/h (1 Bft) S-SO 0.00 h 0.0 UV-I 0 W/m 14.3 C 16.0 C 4.2 km/h (1 Bft)
06.08.2006 22:00 15.5 C 89 % 1018.9 hPa 0.0 l/m 2.3 km/h (1 Bft) S-SO 0.00 h 0.0 UV-I 0 W/m 13.8 C 15.5 C 4.2 km/h (1 Bft)
06.08.2006 23:00 15.1 C 91 % 1019.1 hPa 0.0 l/m 0.8 km/h (0 Bft) S-SO 0.00 h 0.0 UV-I 0 W/m 13.6 C 15.1 C 2.3 km/h (1 Bft)
Min-Datum _ 03.08.06 02.08.06 03.08.06 - 31.07.06 - - - - 02.08.06 03.08.06 31.07.06
_ Min-Zeit 14:37 17:22 06:45 - 00:00 - - - - 17:24 14:37 00:01
Minimum _ 12.6 C 40 % 1003.5 hPa - 0.0 km/h (0 Bft) - - - - 8.8 C 12.6 C 0.0 km/h (0 Bft)
Max-Datum _ 31.07.06 06.08.06 06.08.06 06.08.06 02.08.06 - 31.07.06 02.08.06 02.08.06 31.07.06 31.07.06 02.08.06
_ Max-Zeit 12:23 06:10 23:45 14:51 13:44 - 06:15 12:57 11:25 14:31 12:23 13:44
Maximum _ 28.8 C 100 % 1019.3 hPa 6.2 l/m 31.5 km/h
W-NW (5 Bft)
- 0.02 h 8.9 UV-I 1042 W/m 19.2 C 28.8 C 39.7 km/h
W-NW (6 Bft)
Durchschnitt _ 17.1 C 84 % 1013.0 hPa #45.6 l/m 3.6 km/h (1 Bft) W-NW #18:44 h 2.0 UV-I 187 W/m 14.2 C 17.1 C 6.2 km/h (2 Bft)
© Kaiko 2006